sensor_id;sensor_type;location;lat;lon;timestamp;pressure;altitude;pressure_sealevel;temperature;humidity
929;BME280;451;47.988;7.842;2023-04-02T00:04:04;97765.47;;;9.46;100.00
929;BME280;451;47.988;7.842;2023-04-02T00:13:21;97824.56;;;9.86;100.00
929;BME280;451;47.988;7.842;2023-04-02T00:22:28;97814.78;;;10.09;100.00
929;BME280;451;47.988;7.842;2023-04-02T00:31:32;97825.38;;;10.01;100.00
929;BME280;451;47.988;7.842;2023-04-02T00:40:38;97809.81;;;9.70;100.00
929;BME280;451;47.988;7.842;2023-04-02T00:49:42;97796.88;;;9.54;100.00
929;BME280;451;47.988;7.842;2023-04-02T00:58:50;97832.50;;;10.07;98.71
929;BME280;451;47.988;7.842;2023-04-02T01:08:02;97834.16;;;9.79;98.94
929;BME280;451;47.988;7.842;2023-04-02T01:17:19;97828.00;;;10.01;96.11
929;BME280;451;47.988;7.842;2023-04-02T01:36:04;97836.69;;;9.73;97.33
929;BME280;451;47.988;7.842;2023-04-02T01:45:10;97844.47;;;9.66;100.00
929;BME280;451;47.988;7.842;2023-04-02T01:54:17;97841.41;;;9.77;100.00
929;BME280;451;47.988;7.842;2023-04-02T02:03:22;97857.59;;;9.81;100.00
929;BME280;451;47.988;7.842;2023-04-02T02:12:27;97860.75;;;9.76;100.00
929;BME280;451;47.988;7.842;2023-04-02T02:21:36;97751.16;;;8.82;100.00
929;BME280;451;47.988;7.842;2023-04-02T02:41:05;97852.25;;;9.22;100.00
929;BME280;451;47.988;7.842;2023-04-02T02:50:13;97875.00;;;9.29;100.00
929;BME280;451;47.988;7.842;2023-04-02T02:59:21;97884.91;;;9.57;100.00
929;BME280;451;47.988;7.842;2023-04-02T03:08:29;97892.59;;;9.21;100.00
929;BME280;451;47.988;7.842;2023-04-02T03:17:38;97907.22;;;9.15;100.00
929;BME280;451;47.988;7.842;2023-04-02T03:26:51;97850.03;;;8.65;100.00
929;BME280;451;47.988;7.842;2023-04-02T03:36:02;97922.53;;;9.26;100.00
929;BME280;451;47.988;7.842;2023-04-02T03:45:13;97934.31;;;9.30;100.00
929;BME280;451;47.988;7.842;2023-04-02T03:54:20;97875.19;;;9.05;100.00
929;BME280;451;47.988;7.842;2023-04-02T04:03:27;97920.78;;;9.19;100.00
929;BME280;451;47.988;7.842;2023-04-02T04:12:39;97953.47;;;8.77;100.00
929;BME280;451;47.988;7.842;2023-04-02T04:21:49;97938.66;;;8.62;100.00
929;BME280;451;47.988;7.842;2023-04-02T04:31:12;97941.50;;;8.44;100.00
929;BME280;451;47.988;7.842;2023-04-02T04:40:22;97975.97;;;9.25;100.00
929;BME280;451;47.988;7.842;2023-04-02T04:49:36;97995.19;;;8.87;100.00
929;BME280;451;47.988;7.842;2023-04-02T04:58:47;98010.38;;;8.61;100.00
929;BME280;451;47.988;7.842;2023-04-02T05:07:57;98015.47;;;8.54;100.00
929;BME280;451;47.988;7.842;2023-04-02T05:17:04;98025.81;;;8.47;100.00
929;BME280;451;47.988;7.842;2023-04-02T05:26:14;98047.06;;;8.61;100.00
929;BME280;451;47.988;7.842;2023-04-02T05:35:25;98032.91;;;8.78;100.00
929;BME280;451;47.988;7.842;2023-04-02T05:44:35;97997.59;;;8.66;100.00
929;BME280;451;47.988;7.842;2023-04-02T05:53:46;98041.53;;;8.95;100.00
929;BME280;451;47.988;7.842;2023-04-02T06:02:55;98014.19;;;8.89;100.00
929;BME280;451;47.988;7.842;2023-04-02T06:12:11;98052.53;;;9.52;100.00
929;BME280;451;47.988;7.842;2023-04-02T06:21:19;98042.28;;;9.65;100.00
929;BME280;451;47.988;7.842;2023-04-02T06:30:29;98060.44;;;9.97;100.00
929;BME280;451;47.988;7.842;2023-04-02T06:39:36;98060.59;;;9.96;100.00
929;BME280;451;47.988;7.842;2023-04-02T06:48:42;98088.47;;;10.42;100.00
929;BME280;451;47.988;7.842;2023-04-02T06:57:50;98099.94;;;10.27;100.00
929;BME280;451;47.988;7.842;2023-04-02T07:06:53;98116.72;;;10.93;100.00
929;BME280;451;47.988;7.842;2023-04-02T07:16:01;98125.22;;;10.65;100.00
929;BME280;451;47.988;7.842;2023-04-02T07:25:04;98126.63;;;11.56;100.00
929;BME280;451;47.988;7.842;2023-04-02T07:34:09;98071.44;;;11.26;100.00
929;BME280;451;47.988;7.842;2023-04-02T07:43:12;98145.06;;;11.56;100.00
929;BME280;451;47.988;7.842;2023-04-02T07:52:17;98166.41;;;11.46;100.00
929;BME280;451;47.988;7.842;2023-04-02T08:01:22;98132.09;;;11.54;100.00
929;BME280;451;47.988;7.842;2023-04-02T08:10:27;98183.19;;;11.75;100.00
929;BME280;451;47.988;7.842;2023-04-02T08:19:30;98195.38;;;11.76;100.00
929;BME280;451;47.988;7.842;2023-04-02T08:28:35;98147.50;;;11.87;100.00
929;BME280;451;47.988;7.842;2023-04-02T08:37:42;98175.41;;;13.15;99.14
929;BME280;451;47.988;7.842;2023-04-02T08:46:49;98092.50;;;11.62;93.65
929;BME280;451;47.988;7.842;2023-04-02T08:55:56;98223.94;;;13.49;92.57
929;BME280;451;47.988;7.842;2023-04-02T09:05:17;98267.28;;;13.05;91.31
929;BME280;451;47.988;7.842;2023-04-02T09:14:30;98200.22;;;12.72;90.34
929;BME280;451;47.988;7.842;2023-04-02T09:23:39;98241.03;;;13.53;85.19
929;BME280;451;47.988;7.842;2023-04-02T09:32:48;98256.22;;;13.79;82.66
929;BME280;451;47.988;7.842;2023-04-02T09:41:53;98257.22;;;13.78;78.55
929;BME280;451;47.988;7.842;2023-04-02T09:51:12;98254.06;;;13.54;82.42
929;BME280;451;47.988;7.842;2023-04-02T10:00:20;98267.09;;;14.58;76.71
929;BME280;451;47.988;7.842;2023-04-02T10:09:27;98269.03;;;14.29;74.66
929;BME280;451;47.988;7.842;2023-04-02T10:18:43;98273.47;;;15.09;71.17
929;BME280;451;47.988;7.842;2023-04-02T10:27:51;98296.47;;;14.96;70.14
929;BME280;451;47.988;7.842;2023-04-02T10:37:00;98214.50;;;15.73;63.99
929;BME280;451;47.988;7.842;2023-04-02T10:46:13;98292.38;;;15.79;66.99
929;BME280;451;47.988;7.842;2023-04-02T10:55:22;98098.78;;;14.50;65.75
929;BME280;451;47.988;7.842;2023-04-02T11:04:30;98296.00;;;16.48;61.13
929;BME280;451;47.988;7.842;2023-04-02T11:13:44;98274.09;;;16.98;59.65
929;BME280;451;47.988;7.842;2023-04-02T11:23:04;98262.66;;;16.97;60.34
929;BME280;451;47.988;7.842;2023-04-02T11:32:36;98304.56;;;16.88;62.05
929;BME280;451;47.988;7.842;2023-04-02T11:41:59;98322.13;;;16.89;60.70
929;BME280;451;47.988;7.842;2023-04-02T11:51:13;98318.56;;;16.71;59.67
929;BME280;451;47.988;7.842;2023-04-02T12:10:15;98330.84;;;17.03;58.15
929;BME280;451;47.988;7.842;2023-04-02T12:19:19;98348.56;;;16.78;57.28
929;BME280;451;47.988;7.842;2023-04-02T12:28:27;98277.28;;;16.75;58.14
929;BME280;451;47.988;7.842;2023-04-02T12:37:30;98342.50;;;17.02;56.23
929;BME280;451;47.988;7.842;2023-04-02T12:46:35;98270.94;;;17.07;55.09
929;BME280;451;47.988;7.842;2023-04-02T12:55:38;98329.50;;;17.44;56.59
929;BME280;451;47.988;7.842;2023-04-02T13:04:47;98379.06;;;18.06;54.79
929;BME280;451;47.988;7.842;2023-04-02T13:13:50;98369.25;;;18.06;53.05
929;BME280;451;47.988;7.842;2023-04-02T13:22:54;98303.09;;;18.76;50.17
929;BME280;451;47.988;7.842;2023-04-02T13:31:59;98381.50;;;20.05;46.33
929;BME280;451;47.988;7.842;2023-04-02T13:41:04;98373.78;;;19.09;48.94
929;BME280;451;47.988;7.842;2023-04-02T13:50:08;98305.00;;;14.78;66.09
929;BME280;451;47.988;7.842;2023-04-02T13:59:15;98337.78;;;14.83;69.28
929;BME280;451;47.988;7.842;2023-04-02T14:08:22;98422.13;;;14.45;77.94
929;BME280;451;47.988;7.842;2023-04-02T14:17:40;98443.31;;;12.75;100.00
929;BME280;451;47.988;7.842;2023-04-02T14:26:57;98467.25;;;11.32;100.00
929;BME280;451;47.988;7.842;2023-04-02T14:36:14;98472.50;;;10.78;100.00
929;BME280;451;47.988;7.842;2023-04-02T14:45:28;98483.19;;;11.08;100.00
929;BME280;451;47.988;7.842;2023-04-02T14:54:35;98218.84;;;9.51;100.00
929;BME280;451;47.988;7.842;2023-04-02T15:03:45;98460.50;;;10.37;100.00
929;BME280;451;47.988;7.842;2023-04-02T15:12:54;98481.50;;;10.45;100.00
929;BME280;451;47.988;7.842;2023-04-02T15:22:12;98483.03;;;10.78;100.00
929;BME280;451;47.988;7.842;2023-04-02T15:31:20;98365.03;;;9.97;100.00
929;BME280;451;47.988;7.842;2023-04-02T15:40:47;98524.56;;;10.91;100.00
929;BME280;451;47.988;7.842;2023-04-02T15:50:00;98530.50;;;11.24;100.00
929;BME280;451;47.988;7.842;2023-04-02T15:59:28;98503.28;;;11.01;100.00
929;BME280;451;47.988;7.842;2023-04-02T16:08:49;98546.16;;;11.17;100.00
929;BME280;451;47.988;7.842;2023-04-02T16:18:01;98600.81;;;10.99;100.00
929;BME280;451;47.988;7.842;2023-04-02T16:27:19;98554.94;;;11.32;100.00
929;BME280;451;47.988;7.842;2023-04-02T16:36:40;98497.50;;;10.74;100.00
929;BME280;451;47.988;7.842;2023-04-02T16:45:54;98547.25;;;10.84;100.00
929;BME280;451;47.988;7.842;2023-04-02T16:55:15;98591.19;;;11.22;100.00
929;BME280;451;47.988;7.842;2023-04-02T17:04:48;98576.81;;;10.94;100.00
929;BME280;451;47.988;7.842;2023-04-02T17:14:00;98595.78;;;10.00;100.00
929;BME280;451;47.988;7.842;2023-04-02T17:23:11;98483.00;;;9.26;100.00
929;BME280;451;47.988;7.842;2023-04-02T17:32:18;98633.16;;;9.70;100.00
929;BME280;451;47.988;7.842;2023-04-02T17:41:33;98647.59;;;9.66;100.00
929;BME280;451;47.988;7.842;2023-04-02T17:50:50;98659.25;;;9.71;100.00
929;BME280;451;47.988;7.842;2023-04-02T18:00:15;98679.19;;;10.06;100.00
929;BME280;451;47.988;7.842;2023-04-02T18:09:33;98696.78;;;10.14;100.00
929;BME280;451;47.988;7.842;2023-04-02T18:18:55;98700.22;;;10.15;100.00
929;BME280;451;47.988;7.842;2023-04-02T18:28:15;98721.41;;;10.05;100.00
929;BME280;451;47.988;7.842;2023-04-02T18:37:28;98714.03;;;9.32;100.00
929;BME280;451;47.988;7.842;2023-04-02T18:46:38;98747.03;;;9.43;100.00
929;BME280;451;47.988;7.842;2023-04-02T18:55:48;98755.78;;;9.52;100.00
929;BME280;451;47.988;7.842;2023-04-02T19:04:57;98741.03;;;9.25;100.00
929;BME280;451;47.988;7.842;2023-04-02T19:14:06;98779.34;;;9.44;100.00
929;BME280;451;47.988;7.842;2023-04-02T19:23:25;98789.13;;;9.59;100.00
929;BME280;451;47.988;7.842;2023-04-02T19:32:38;98809.72;;;9.72;100.00
929;BME280;451;47.988;7.842;2023-04-02T19:41:49;98822.97;;;9.96;100.00
929;BME280;451;47.988;7.842;2023-04-02T19:50:55;98812.78;;;10.01;100.00
929;BME280;451;47.988;7.842;2023-04-02T19:59:58;98853.38;;;9.47;100.00
929;BME280;451;47.988;7.842;2023-04-02T20:09:02;98834.94;;;9.65;100.00
929;BME280;451;47.988;7.842;2023-04-02T20:18:05;98871.34;;;9.16;100.00
929;BME280;451;47.988;7.842;2023-04-02T20:27:11;98850.06;;;8.84;100.00
929;BME280;451;47.988;7.842;2023-04-02T20:36:15;98874.38;;;8.76;100.00
929;BME280;451;47.988;7.842;2023-04-02T20:45:20;98841.56;;;8.37;100.00
929;BME280;451;47.988;7.842;2023-04-02T20:54:23;98904.06;;;8.49;100.00
929;BME280;451;47.988;7.842;2023-04-02T21:03:28;98859.94;;;8.55;100.00
929;BME280;451;47.988;7.842;2023-04-02T21:12:31;98926.53;;;8.15;100.00
929;BME280;451;47.988;7.842;2023-04-02T21:21:37;98902.22;;;8.32;100.00
929;BME280;451;47.988;7.842;2023-04-02T21:30:41;98940.06;;;8.01;100.00
929;BME280;451;47.988;7.842;2023-04-02T21:39:45;98882.75;;;7.51;100.00
929;BME280;451;47.988;7.842;2023-04-02T21:48:49;98948.78;;;8.38;100.00
929;BME280;451;47.988;7.842;2023-04-02T21:57:54;98954.94;;;8.10;100.00
929;BME280;451;47.988;7.842;2023-04-02T22:06:57;98942.38;;;7.38;100.00
929;BME280;451;47.988;7.842;2023-04-02T22:16:04;98964.41;;;7.45;100.00
929;BME280;451;47.988;7.842;2023-04-02T22:25:08;98931.63;;;6.83;100.00
929;BME280;451;47.988;7.842;2023-04-02T22:34:13;98936.00;;;6.73;100.00
929;BME280;451;47.988;7.842;2023-04-02T22:43:16;98974.53;;;6.91;100.00
929;BME280;451;47.988;7.842;2023-04-02T22:52:21;98999.06;;;7.18;100.00
929;BME280;451;47.988;7.842;2023-04-02T23:01:26;99021.06;;;7.06;100.00
929;BME280;451;47.988;7.842;2023-04-02T23:10:31;99025.69;;;6.83;100.00
929;BME280;451;47.988;7.842;2023-04-02T23:19:34;99021.63;;;6.60;100.00
929;BME280;451;47.988;7.842;2023-04-02T23:28:39;99026.66;;;6.52;100.00
929;BME280;451;47.988;7.842;2023-04-02T23:37:42;99017.25;;;6.40;100.00
929;BME280;451;47.988;7.842;2023-04-02T23:46:46;99026.56;;;6.33;100.00
929;BME280;451;47.988;7.842;2023-04-02T23:55:49;99004.81;;;6.23;100.00
